Time;durP1;ratioP1;P1;durP2;ratioP2;P2;SDS_P1;SDS_P2;PMS_P1;PMS_P2;Temp;Humidity;BMP_temperature;BMP_pressure;BME280_temperature;BME280_humidity;BME280_pressure;Samples;Min_cycle;Max_cycle;Signal;HPM_P1;HPM_P2
2022/08/04 00:02:45;;;;;;;3.83;1.92;;;25.40;95.10;;;;;;5061599;28;20601;-79
2022/08/04 00:05:45;;;;;;;3.25;1.50;;;25.40;95.30;;;;;;5032924;28;20044;-80
2022/08/04 00:08:34;;;;;;;3.70;1.83;;;25.40;95.30;;;;;;5044117;28;20966;-79
2022/08/04 00:11:01;;;;;;;5.30;1.73;;;25.30;95.40;;;;;;5073693;28;20037;-80
2022/08/04 00:13:31;;;;;;;3.80;1.65;;;25.30;95.50;;;;;;5058690;28;20283;-79
2022/08/04 00:16:02;;;;;;;4.15;1.55;;;25.30;95.60;;;;;;5073804;28;20041;-80
2022/08/04 00:18:44;;;;;;;4.50;2.72;;;25.30;95.60;;;;;;5059915;28;20067;-80
2022/08/04 00:21:14;;;;;;;4.38;1.77;;;25.20;95.70;;;;;;5057870;28;20658;-80
2022/08/04 00:23:43;;;;;;;8.88;2.67;;;25.20;95.70;;;;;;5063926;28;20519;-80
2022/08/04 00:26:09;;;;;;;4.18;1.92;;;25.10;95.80;;;;;;5063899;28;20244;-80
2022/08/04 00:28:41;;;;;;;9.02;2.40;;;25.10;95.90;;;;;;5062040;28;20545;-80
2022/08/04 00:31:09;;;;;;;4.45;2.05;;;25.10;95.90;;;;;;5095611;27;20045;-80
2022/08/04 00:33:37;;;;;;;7.07;2.67;;;25.10;95.90;;;;;;5096057;27;20079;-80
2022/08/04 00:36:03;;;;;;;4.30;2.05;;;25.10;96.00;;;;;;5096586;27;20072;-80
2022/08/04 00:38:29;;;;;;;10.40;2.53;;;25.10;96.00;;;;;;5065922;28;20105;-80
2022/08/04 00:41:07;;;;;;;9.68;2.47;;;25.10;96.10;;;;;;5065397;28;20049;-80
2022/08/04 00:43:57;;;;;;;7.90;2.40;;;25.10;96.00;;;;;;5063648;28;20049;-80
2022/08/04 00:47:03;;;;;;;5.90;2.28;;;25.10;96.10;;;;;;5040505;28;20946;-80
2022/08/04 00:50:07;;;;;;;5.32;2.17;;;25.00;96.20;;;;;;5063743;28;20602;-79
2022/08/04 00:52:46;;;;;;;4.07;1.98;;;24.90;96.30;;;;;;5065404;28;20147;-80
2022/08/04 00:55:39;;;;;;;3.97;1.80;;;24.90;96.40;;;;;;5064631;28;20045;-80
2022/08/04 00:58:20;;;;;;;4.70;1.90;;;24.90;96.60;;;;;;5061951;28;20052;-80
2022/08/04 01:01:03;;;;;;;8.87;2.60;;;24.90;96.60;;;;;;5064431;28;20040;-80
2022/08/04 01:03:29;;;;;;;6.40;2.70;;;24.80;96.60;;;;;;5063401;28;20040;-80
2022/08/04 01:06:20;;;;;;;8.02;2.17;;;24.90;96.70;;;;;;5066969;28;20068;-80
2022/08/04 01:09:02;;;;;;;5.60;2.20;;;24.90;96.70;;;;;;5063666;28;20159;-80
2022/08/04 01:12:06;;;;;;;9.38;2.17;;;24.80;96.70;;;;;;5062644;28;20047;-80
2022/08/04 01:15:08;;;;;;;6.82;2.17;;;24.80;96.80;;;;;;5062517;28;20029;-80
2022/08/04 01:17:54;;;;;;;7.07;2.75;;;24.70;96.90;;;;;;5025398;28;20665;-80
2022/08/04 01:20:25;;;;;;;5.70;2.85;;;24.70;97.00;;;;;;5064655;28;20558;-80
2022/08/04 01:23:31;;;;;;;9.07;2.97;;;24.70;97.10;;;;;;5063338;28;20090;-80
2022/08/04 01:26:06;;;;;;;8.68;2.72;;;24.70;97.10;;;;;;5064197;28;20041;-80
2022/08/04 01:28:40;;;;;;;4.22;2.47;;;24.70;97.20;;;;;;5078585;28;20033;-79
2022/08/04 01:31:34;;;;;;;6.18;3.63;;;24.60;97.20;;;;;;5084991;28;20033;-79
2022/08/04 01:34:04;;;;;;;5.70;2.28;;;24.60;97.30;;;;;;5059034;28;20601;-79
2022/08/04 01:36:34;;;;;;;4.07;2.22;;;24.60;97.50;;;;;;5090518;28;20064;-80
2022/08/04 01:39:39;;;;;;;3.50;2.03;;;24.60;97.40;;;;;;5107462;27;20515;-79
2022/08/04 01:41:46;;;;;;;7.95;2.83;;;24.60;97.40;;;;;;5067224;28;20043;-79
2022/08/04 01:44:13;;;;;;;7.50;2.50;;;24.40;97.50;;;;;;5065682;28;20507;-80
2022/08/04 01:46:40;;;;;;;5.50;2.78;;;24.40;97.60;;;;;;5080293;28;20052;-80
2022/08/04 01:49:08;;;;;;;5.82;2.45;;;24.40;97.60;;;;;;5065921;28;20041;-80
2022/08/04 01:51:39;;;;;;;4.72;2.20;;;24.40;97.80;;;;;;5064383;28;21315;-80
2022/08/04 01:54:06;;;;;;;5.65;2.28;;;24.40;97.70;;;;;;5063469;28;20095;-79
2022/08/04 01:56:32;;;;;;;6.00;2.60;;;24.30;97.80;;;;;;5063292;28;20044;-80
2022/08/04 01:59:01;;;;;;;6.68;3.13;;;24.30;97.90;;;;;;5062445;28;20073;-79
2022/08/04 02:01:27;;;;;;;5.22;2.90;;;24.30;98.00;;;;;;5061322;28;20049;-80
2022/08/04 02:03:53;;;;;;;5.45;2.30;;;24.20;98.00;;;;;;5048220;28;20032;-80
2022/08/04 02:06:31;;;;;;;6.57;2.85;;;24.10;98.10;;;;;;5065965;28;20094;-80
2022/08/04 02:09:28;;;;;;;5.85;2.63;;;24.20;98.20;;;;;;5053312;28;20064;-80
2022/08/04 02:12:25;;;;;;;9.30;2.40;;;24.10;98.20;;;;;;5060582;28;20046;-79
2022/08/04 02:14:58;;;;;;;8.10;2.95;;;24.10;98.30;;;;;;5063283;28;20052;-80
2022/08/04 02:17:48;;;;;;;6.72;3.05;;;24.10;98.40;;;;;;5061474;28;20095;-80
2022/08/04 02:20:28;;;;;;;5.93;2.80;;;24.10;98.50;;;;;;5045903;28;20048;-80
2022/08/04 02:23:07;;;;;;;4.68;1.85;;;24.10;98.50;;;;;;5062344;28;20041;-80
2022/08/04 02:25:54;;;;;;;4.82;2.60;;;24.10;98.60;;;;;;5062485;28;20498;-80
2022/08/04 02:28:27;;;;;;;7.78;3.45;;;24.10;98.60;;;;;;5063819;28;20037;-80
2022/08/04 02:30:57;;;;;;;4.95;2.35;;;24.00;98.70;;;;;;5063767;28;20404;-80
2022/08/04 02:33:39;;;;;;;4.53;2.08;;;24.00;98.70;;;;;;5062141;28;20045;-80
2022/08/04 02:36:08;;;;;;;5.93;2.70;;;23.90;98.80;;;;;;5062018;28;20032;-80
2022/08/04 02:38:49;;;;;;;5.47;2.63;;;23.90;98.90;;;;;;5062385;28;20044;-80
2022/08/04 02:41:18;;;;;;;6.97;2.85;;;23.90;99.00;;;;;;5063422;28;20909;-81
2022/08/04 02:43:47;;;;;;;4.50;2.95;;;23.90;99.00;;;;;;5063351;28;20087;-80
2022/08/04 02:46:14;;;;;;;4.55;2.72;;;23.90;99.00;;;;;;5062001;28;20152;-80
2022/08/04 02:48:44;;;;;;;7.82;3.10;;;23.80;99.20;;;;;;5061686;28;20144;-80
2022/08/04 02:51:13;;;;;;;6.18;2.50;;;23.80;99.20;;;;;;5061447;28;20065;-80
2022/08/04 02:53:42;;;;;;;4.63;2.88;;;23.80;99.30;;;;;;5063440;28;20037;-80
2022/08/04 02:56:10;;;;;;;10.20;3.17;;;23.80;99.30;;;;;;5059866;28;21824;-80
2022/08/04 02:58:37;;;;;;;4.53;2.55;;;23.60;99.70;;;;;;5061700;28;20040;-80
2022/08/04 03:01:03;;;;;;;8.45;2.85;;;23.60;99.90;;;;;;5093104;27;20052;-80
2022/08/04 03:03:51;;;;;;;6.20;2.67;;;23.60;99.90;;;;;;5063198;28;20200;-80
2022/08/04 03:06:46;;;;;;;10.55;3.28;;;23.50;99.90;;;;;;5061844;28;20087;-80
2022/08/04 03:09:12;;;;;;;5.35;3.08;;;23.40;99.90;;;;;;5019503;28;20090;-80
2022/08/04 03:12:15;;;;;;;6.63;3.00;;;23.30;99.90;;;;;;5060687;28;20048;-80
2022/08/04 03:15:19;;;;;;;7.63;3.50;;;23.30;99.90;;;;;;5057681;28;20178;-80
2022/08/04 03:18:09;;;;;;;5.57;3.30;;;23.30;99.90;;;;;;5091990;27;20061;-80
2022/08/04 03:20:38;;;;;;;3.65;2.28;;;23.30;99.90;;;;;;5094398;27;20091;-80
2022/08/04 03:23:22;;;;;;;4.25;2.05;;;23.40;99.90;;;;;;5096003;27;20041;-80
2022/08/04 03:26:29;;;;;;;6.38;3.55;;;23.40;99.90;;;;;;5062040;28;20041;-80
2022/08/04 03:29:27;;;;;;;4.60;2.42;;;23.40;99.90;;;;;;5038231;28;20137;-80
2022/08/04 03:32:09;;;;;;;6.68;2.85;;;23.50;99.90;;;;;;5061608;28;20098;-81
2022/08/04 03:34:53;;;;;;;4.10;2.50;;;23.40;99.90;;;;;;5094735;27;20534;-81
2022/08/04 03:37:38;;;;;;;5.82;2.22;;;23.50;99.90;;;;;;5063538;28;20040;-80
2022/08/04 03:40:28;;;;;;;3.50;2.10;;;;;;;;;;5093750;27;20402;-81
2022/08/04 03:43:15;;;;;;;9.18;2.65;;;23.50;99.90;;;;;;5092916;27;20043;-80
2022/08/04 03:45:41;;;;;;;5.05;2.38;;;23.40;99.90;;;;;;5064167;28;20240;-80
2022/08/04 03:48:33;;;;;;;6.63;2.72;;;23.30;99.90;;;;;;5063292;28;20210;-80
2022/08/04 03:54:21;;;;;;;4.68;2.83;;;23.30;99.90;;;;;;5062903;28;20550;-80
2022/08/04 03:57:18;;;;;;;6.53;2.50;;;23.30;99.90;;;;;;5058961;28;20053;-80
2022/08/04 04:00:02;;;;;;;5.57;2.70;;;23.20;99.90;;;;;;5063941;28;20047;-80
2022/08/04 04:02:57;;;;;;;7.40;2.70;;;23.20;99.90;;;;;;5066718;28;20191;-80
2022/08/04 04:05:56;;;;;;;6.18;2.53;;;23.10;99.90;;;;;;5065305;28;20041;-80
2022/08/04 04:09:00;;;;;;;4.85;2.78;;;23.10;99.90;;;;;;5063347;28;20155;-79
2022/08/04 04:11:37;;;;;;;6.65;2.53;;;23.00;99.90;;;;;;5097322;27;20094;-79
2022/08/04 04:14:27;;;;;;;14.38;3.95;;;23.00;99.90;;;;;;5065151;28;20117;-80
2022/08/04 04:17:28;;;;;;;6.55;2.10;;;23.00;99.90;;;;;;5065196;28;20048;-80
2022/08/04 04:20:37;;;;;;;3.42;1.90;;;23.00;99.90;;;;;;5097172;27;20037;-80
2022/08/04 04:23:40;;;;;;;5.05;2.10;;;22.90;99.90;;;;;;5066112;28;20082;-79
2022/08/04 04:26:31;;;;;;;7.03;2.53;;;22.90;99.90;;;;;;5066036;28;20538;-80
2022/08/04 04:29:33;;;;;;;3.80;1.85;;;22.90;99.90;;;;;;5096497;27;20726;-80
2022/08/04 04:32:18;;;;;;;5.72;2.10;;;22.80;99.90;;;;;;5063894;28;20041;-79
2022/08/04 04:35:21;;;;;;;3.28;1.80;;;22.70;99.90;;;;;;5063119;28;20050;-80
2022/08/04 04:38:10;;;;;;;5.47;2.13;;;22.70;99.90;;;;;;5066352;28;20915;-80
2022/08/04 04:41:10;;;;;;;5.13;2.45;;;22.70;99.90;;;;;;5023905;28;20057;-80
2022/08/04 04:43:51;;;;;;;3.58;1.75;;;22.80;99.90;;;;;;5065693;28;20052;-78
2022/08/04 04:46:44;;;;;;;4.88;2.45;;;22.80;99.90;;;;;;5058301;28;20604;-80
2022/08/04 04:49:19;;;;;;;4.90;1.65;;;22.70;99.90;;;;;;5057216;28;20045;-81
2022/08/04 04:52:08;;;;;;;3.90;1.55;;;22.70;99.90;;;;;;5094507;27;20045;-79
2022/08/04 04:54:52;;;;;;;4.38;2.15;;;22.70;99.90;;;;;;5063254;28;20049;-80
2022/08/04 04:57:18;;;;;;;3.28;1.77;;;22.70;99.90;;;;;;5061332;28;20037;-78
2022/08/04 04:59:55;;;;;;;7.43;2.60;;;22.60;99.90;;;;;;5062201;28;20506;-78
2022/08/04 05:02:49;;;;;;;5.13;2.33;;;22.60;99.90;;;;;;5063742;28;20036;-80
2022/08/04 05:05:45;;;;;;;4.65;2.08;;;22.60;99.90;;;;;;5094133;27;20441;-83
2022/08/04 05:08:41;;;;;;;4.38;1.77;;;22.60;99.90;;;;;;5060995;28;20049;-78
2022/08/04 05:11:39;;;;;;;2.95;1.83;;;22.60;99.90;;;;;;5061470;28;20079;-78
2022/08/04 05:14:16;;;;;;;7.43;1.85;;;22.70;99.90;;;;;;5060812;28;21009;-79
2022/08/04 05:17:08;;;;;;;4.75;1.63;;;22.70;99.90;;;;;;5059835;28;20851;-79
2022/08/04 05:19:37;;;;;;;3.67;1.63;;;22.60;99.90;;;;;;5062230;28;20762;-80
2022/08/04 05:22:23;;;;;;;4.93;2.47;;;22.70;99.90;;;;;;5065311;28;20863;-80
2022/08/04 05:24:57;;;;;;;6.28;2.05;;;22.70;99.90;;;;;;5062459;28;20072;-80
2022/08/04 05:27:30;;;;;;;5.82;2.50;;;22.70;99.90;;;;;;5079856;28;20048;-78
2022/08/04 05:30:01;;;;;;;7.03;2.20;;;22.60;99.90;;;;;;5064975;28;20037;-81
2022/08/04 05:32:29;;;;;;;;;;;22.50;99.90;;;;;;5066007;28;20084;-80
2022/08/04 05:35:01;;;;;;;4.93;2.13;;;22.60;99.90;;;;;;5064624;28;20796;-80
2022/08/04 05:37:27;;;;;;;;;;;22.60;99.90;;;;;;5064173;28;20041;-81
2022/08/04 05:39:59;;;;;;;5.47;2.63;;;22.60;99.90;;;;;;5066446;28;19921;-81
2022/08/04 05:42:27;;;;;;;17.33;2.85;;;22.70;99.90;;;;;;5063055;28;20941;-80
2022/08/04 05:44:54;;;;;;;17.90;3.38;;;22.70;99.90;;;;;;5064492;28;20853;-80
2022/08/04 05:47:20;;;;;;;5.80;2.40;;;22.70;99.90;;;;;;5064323;28;20120;-81
2022/08/04 05:49:47;;;;;;;8.60;2.45;;;22.70;99.90;;;;;;5096265;27;20704;-80
2022/08/04 05:52:13;;;;;;;4.68;2.13;;;22.70;99.90;;;;;;5065098;28;20045;-80
2022/08/04 05:54:41;;;;;;;5.55;2.42;;;22.70;99.90;;;;;;5065626;28;20535;-80
2022/08/04 05:57:08;;;;;;;10.20;2.17;;;22.70;99.90;;;;;;5060669;28;20088;-80
2022/08/04 05:59:37;;;;;;;7.10;2.17;;;22.70;99.90;;;;;;5093215;27;20648;-79
2022/08/04 06:02:04;;;;;;;5.47;2.00;;;22.70;99.90;;;;;;5065456;28;20094;-80
2022/08/04 06:04:40;;;;;;;7.38;2.17;;;22.70;99.90;;;;;;5064684;28;20037;-79
2022/08/04 06:07:07;;;;;;;5.30;2.13;;;22.70;99.90;;;;;;5059144;28;20041;-78
2022/08/04 06:09:33;;;;;;;4.43;1.88;;;22.70;99.90;;;;;;5070664;28;20659;-80
2022/08/04 06:12:01;;;;;;;5.38;2.80;;;22.60;99.90;;;;;;5063266;28;20079;-78
2022/08/04 06:14:39;;;;;;;8.40;3.00;;;22.60;99.90;;;;;;5062649;28;20048;-78
2022/08/04 06:17:07;;;;;;;7.50;2.80;;;22.60;99.90;;;;;;5062004;28;20099;-80
2022/08/04 06:19:35;;;;;;;7.63;2.78;;;22.60;99.90;;;;;;5064200;28;20537;-80
2022/08/04 06:22:04;;;;;;;5.93;2.17;;;22.60;99.90;;;;;;5063057;28;20041;-80
2022/08/04 06:24:31;;;;;;;4.30;2.17;;;22.50;99.90;;;;;;5063079;28;20068;-79
2022/08/04 06:26:58;;;;;;;11.52;2.75;;;22.50;99.90;;;;;;5063784;28;20041;-79
2022/08/04 06:29:34;;;;;;;7.55;2.50;;;22.50;99.90;;;;;;5062741;28;20055;-79
2022/08/04 06:32:12;;;;;;;7.93;2.05;;;22.50;99.90;;;;;;5061901;28;20533;-79
2022/08/04 06:34:38;;;;;;;5.35;2.28;;;22.50;99.90;;;;;;5064117;28;20099;-79
2022/08/04 06:37:07;;;;;;;3.92;1.88;;;22.50;99.90;;;;;;5058040;28;20862;-79
2022/08/04 06:39:33;;;;;;;4.63;2.13;;;22.50;99.90;;;;;;5063822;28;20036;-78
2022/08/04 06:42:00;;;;;;;4.25;2.38;;;22.60;99.90;;;;;;5061385;28;20044;-78
2022/08/04 06:44:27;;;;;;;8.90;2.15;;;22.80;99.90;;;;;;5061274;28;20602;-79
2022/08/04 06:46:55;;;;;;;3.33;1.90;;;22.70;99.90;;;;;;5095069;27;20045;-78
2022/08/04 06:49:22;;;;;;;5.50;2.10;;;22.70;99.90;;;;;;5062146;28;20047;-77
2022/08/04 06:51:49;;;;;;;7.93;3.65;;;22.60;99.90;;;;;;5061085;28;20561;-78
2022/08/04 06:54:15;;;;;;;3.78;2.22;;;22.60;99.90;;;;;;5066546;28;20072;-78
2022/08/04 06:56:44;;;;;;;7.75;3.70;;;22.60;99.90;;;;;;5063964;28;20179;-78
2022/08/04 06:59:11;;;;;;;6.35;3.03;;;22.60;99.90;;;;;;5098498;27;20049;-78
2022/08/04 07:01:37;;;;;;;4.47;2.35;;;22.60;99.90;;;;;;5064619;28;20066;-78
2022/08/04 07:04:04;;;;;;;4.13;2.45;;;22.60;99.90;;;;;;5065130;28;20037;-78
2022/08/04 07:06:30;;;;;;;5.78;2.28;;;22.60;99.90;;;;;;5065626;28;20102;-78
2022/08/04 07:08:56;;;;;;;4.72;2.33;;;22.50;99.90;;;;;;5067251;28;20531;-78
2022/08/04 07:11:23;;;;;;;5.43;2.60;;;22.60;99.90;;;;;;5067871;28;20043;-78
2022/08/04 07:13:50;;;;;;;6.13;3.30;;;22.70;99.90;;;;;;5065440;28;20094;-78
2022/08/04 07:16:17;;;;;;;7.50;2.65;;;22.80;99.90;;;;;;5065650;28;20532;-78
2022/08/04 07:18:43;;;;;;;5.40;2.70;;;22.80;99.90;;;;;;5067742;28;20509;-78
2022/08/04 07:21:17;;;;;;;6.28;3.70;;;22.80;99.90;;;;;;5065866;28;20040;-78
2022/08/04 07:23:44;;;;;;;8.05;3.70;;;22.90;99.90;;;;;;5066202;28;20043;-78
2022/08/04 07:26:10;;;;;;;8.18;4.10;;;22.90;99.90;;;;;;5064204;28;20051;-78
2022/08/04 07:28:36;;;;;;;9.27;4.68;;;22.90;99.90;;;;;;5080171;28;20099;-78
2022/08/04 07:31:04;;;;;;;7.38;4.00;;;22.90;99.90;;;;;;5066005;28;20036;-78
2022/08/04 07:33:30;;;;;;;7.95;4.80;;;23.00;99.90;;;;;;5063275;28;20597;-78
2022/08/04 07:35:57;;;;;;;8.35;4.68;;;23.10;99.90;;;;;;5066071;28;20690;-78
2022/08/04 07:38:23;;;;;;;9.23;5.40;;;23.10;99.90;;;;;;5064607;28;20049;-78
2022/08/04 07:40:49;;;;;;;8.85;4.50;;;23.10;99.90;;;;;;5065988;28;20037;-78
2022/08/04 07:43:16;;;;;;;12.43;6.35;;;23.10;99.90;;;;;;5064062;28;20080;-77
2022/08/04 07:45:42;;;;;;;13.07;6.40;;;23.00;99.90;;;;;;5066657;28;20498;-78
2022/08/04 07:48:09;;;;;;;10.55;6.53;;;22.90;99.90;;;;;;5048600;28;20128;-78
2022/08/04 07:50:37;;;;;;;10.40;6.28;;;22.90;99.90;;;;;;5067098;28;20048;-78
2022/08/04 07:53:03;;;;;;;11.07;5.70;;;22.90;99.90;;;;;;5067705;28;20114;-78
2022/08/04 07:55:30;;;;;;;12.18;4.55;;;22.90;99.90;;;;;;5066131;28;20128;-78
2022/08/04 07:57:55;;;;;;;12.27;5.93;;;22.90;99.90;;;;;;5065932;28;20131;-78
2022/08/04 08:00:21;;;;;;;11.13;5.85;;;23.00;99.90;;;;;;5066417;28;20049;-77
2022/08/04 08:02:53;;;;;;;12.85;6.75;;;23.10;99.90;;;;;;5065234;28;20044;-78
2022/08/04 08:05:20;;;;;;;11.52;5.68;;;23.10;99.90;;;;;;5065151;28;20072;-78
2022/08/04 08:07:49;;;;;;;11.05;5.93;;;23.10;99.90;;;;;;5061144;28;20060;-78
2022/08/04 08:10:16;;;;;;;13.85;6.97;;;23.20;99.90;;;;;;5065572;28;20544;-78
2022/08/04 08:12:42;;;;;;;11.43;5.80;;;23.30;99.90;;;;;;5065783;28;20044;-78
2022/08/04 08:15:11;;;;;;;13.60;6.25;;;23.20;99.90;;;;;;5068064;28;20530;-78
2022/08/04 08:17:37;;;;;;;9.23;5.82;;;23.30;99.90;;;;;;5064858;28;20037;-78
2022/08/04 08:20:06;;;;;;;9.30;5.00;;;23.20;99.90;;;;;;5064984;28;20040;-78
2022/08/04 08:22:32;;;;;;;12.73;6.13;;;23.20;99.90;;;;;;5066099;28;20045;-78
2022/08/04 08:24:58;;;;;;;11.35;4.68;;;23.20;99.90;;;;;;5065864;28;20526;-78
2022/08/04 08:27:25;;;;;;;16.92;6.68;;;23.20;99.90;;;;;;5080397;28;20091;-78
2022/08/04 08:29:51;;;;;;;10.93;5.38;;;23.20;99.90;;;;;;5066299;28;20059;-78
2022/08/04 08:32:17;;;;;;;11.82;7.05;;;23.30;99.90;;;;;;5064279;28;20092;-78
2022/08/04 08:34:44;;;;;;;11.40;5.60;;;23.30;99.90;;;;;;5065294;28;20049;-78
2022/08/04 08:37:18;;;;;;;13.77;5.68;;;23.30;99.90;;;;;;5064142;28;20045;-78
2022/08/04 08:39:57;;;;;;;11.25;5.65;;;23.50;99.90;;;;;;5066759;28;20629;-79
2022/08/04 08:43:10;;;;;;;12.63;5.30;;;23.50;99.90;;;;;;5049468;28;20048;-78
2022/08/04 08:45:57;;;;;;;15.38;6.50;;;23.50;99.90;;;;;;4994824;28;20069;-78
2022/08/04 08:48:43;;;;;;;8.38;4.95;;;23.50;99.90;;;;;;5078966;28;20132;-79
2022/08/04 08:51:46;;;;;;;8.55;5.70;;;23.50;99.90;;;;;;5101407;27;20183;-78
2022/08/04 08:54:52;;;;;;;10.10;5.25;;;23.40;99.90;;;;;;5070010;28;20045;-78
2022/08/04 08:57:23;;;;;;;12.77;4.93;;;23.30;99.90;;;;;;5052578;28;20132;-78
2022/08/04 08:59:59;;;;;;;11.90;6.05;;;23.30;99.90;;;;;;5102684;27;20056;-78
2022/08/04 09:02:49;;;;;;;12.00;7.32;;;23.40;99.90;;;;;;5069105;28;20908;-78
2022/08/04 09:05:30;;;;;;;14.82;5.18;;;23.40;99.90;;;;;;5069129;28;20054;-78
2022/08/04 09:08:28;;;;;;;11.30;6.27;;;23.40;99.90;;;;;;5068812;28;20063;-78
2022/08/04 09:11:05;;;;;;;15.02;6.55;;;23.20;99.90;;;;;;5069107;28;20165;-77
2022/08/04 09:13:53;;;;;;;15.65;7.22;;;23.10;99.90;;;;;;5069980;28;20057;-78
2022/08/04 09:16:46;;;;;;;11.95;6.40;;;23.10;99.90;;;;;;5083411;28;20041;-78
2022/08/04 09:19:16;;;;;;;24.92;8.93;;;23.10;99.90;;;;;;5066625;28;20045;-78
2022/08/04 09:22:08;;;;;;;17.67;6.00;;;23.10;99.90;;;;;;5068504;28;20067;-78
2022/08/04 09:25:05;;;;;;;14.57;5.32;;;23.00;99.90;;;;;;5050864;28;20056;-78
2022/08/04 09:27:33;;;;;;;12.85;6.07;;;23.10;99.90;;;;;;5067866;28;20047;-78
2022/08/04 09:30:08;;;;;;;13.35;6.70;;;23.10;99.90;;;;;;5068726;28;20096;-78
2022/08/04 09:32:46;;;;;;;13.38;5.80;;;23.20;99.90;;;;;;5099221;27;20484;-78
2022/08/04 09:35:20;;;;;;;15.98;6.80;;;23.10;99.90;;;;;;5100750;27;20465;-78
2022/08/04 09:38:13;;;;;;;14.23;6.50;;;23.00;99.90;;;;;;5068585;28;20043;-78
2022/08/04 09:40:56;;;;;;;14.98;7.13;;;23.00;99.90;;;;;;5068740;28;20527;-77
2022/08/04 09:43:49;;;;;;;8.77;5.65;;;23.00;99.90;;;;;;5067058;28;20056;-78
2022/08/04 09:46:42;;;;;;;9.98;5.65;;;23.10;99.90;;;;;;5067010;28;20045;-78
2022/08/04 09:49:20;;;;;;;10.85;5.15;;;23.20;99.90;;;;;;5064864;28;20087;-78
2022/08/04 09:51:52;;;;;;;10.98;6.70;;;23.20;99.90;;;;;;5051093;28;21205;-78
2022/08/04 09:54:50;;;;;;;8.98;5.38;;;23.20;99.90;;;;;;5067773;28;20044;-78
2022/08/04 09:57:37;;;;;;;11.80;5.95;;;23.10;99.90;;;;;;5065921;28;20045;-78
2022/08/04 10:00:12;;;;;;;10.13;5.18;;;23.10;99.90;;;;;;5067868;28;20099;-78
2022/08/04 10:02:59;;;;;;;11.02;5.90;;;23.10;99.90;;;;;;5099682;27;20040;-78
2022/08/04 10:05:39;;;;;;;9.82;5.75;;;23.20;99.90;;;;;;5066831;28;20561;-78
2022/08/04 10:08:23;;;;;;;8.30;4.00;;;23.10;99.90;;;;;;5068189;28;20151;-78
2022/08/04 10:10:52;;;;;;;10.23;5.32;;;23.10;99.90;;;;;;5068054;28;20122;-78
2022/08/04 10:13:33;;;;;;;8.93;4.93;;;23.10;99.90;;;;;;5065986;28;20047;-78
2022/08/04 10:16:16;;;;;;;9.00;4.43;;;23.20;99.90;;;;;;5066667;28;20066;-77
2022/08/04 10:19:00;;;;;;;8.30;4.88;;;23.20;99.90;;;;;;5068525;28;20255;-78
2022/08/04 10:22:22;;;;;;;10.65;4.78;;;23.30;99.90;;;;;;5100730;27;20548;-78
2022/08/04 10:25:13;;;;;;;12.05;4.68;;;23.40;99.90;;;;;;4970676;28;20226;-77
2022/08/04 10:27:55;;;;;;;6.17;3.60;;;23.40;99.90;;;;;;5061793;28;20049;-78
2022/08/04 10:30:22;;;;;;;6.15;4.07;;;23.40;99.90;;;;;;5083805;28;20278;-77
2022/08/04 10:33:07;;;;;;;6.45;4.40;;;23.50;99.90;;;;;;5080284;28;20043;-78
2022/08/04 10:35:42;;;;;;;8.63;4.63;;;23.40;99.90;;;;;;5066978;28;20445;-78
2022/08/04 10:38:56;;;;;;;7.50;4.07;;;23.40;99.90;;;;;;5067065;28;20757;-78
2022/08/04 10:42:05;;;;;;;8.45;4.30;;;23.50;99.90;;;;;;5046885;28;20053;-78
2022/08/04 10:44:37;;;;;;;7.97;4.47;;;23.60;99.90;;;;;;4995772;28;20038;-77
2022/08/04 10:47:12;;;;;;;8.25;4.55;;;23.70;99.90;;;;;;5071545;28;20053;-78
2022/08/04 10:49:47;;;;;;;6.45;4.32;;;23.80;99.90;;;;;;5069090;28;20041;-77
2022/08/04 10:52:24;;;;;;;11.25;4.60;;;23.90;99.90;;;;;;5083715;28;20530;-78
2022/08/04 10:54:55;;;;;;;5.80;3.65;;;23.90;99.90;;;;;;5067421;28;20044;-77
2022/08/04 10:58:01;;;;;;;6.93;4.60;;;24.00;99.90;;;;;;5067267;28;20046;-78
2022/08/04 11:00:30;;;;;;;9.52;5.57;;;24.20;99.90;;;;;;4986844;28;20576;-77
2022/08/04 11:03:14;;;;;;;10.73;7.22;;;24.30;99.90;;;;;;4986466;28;20101;-77
2022/08/04 11:05:42;;;;;;;9.70;6.57;;;24.40;99.90;;;;;;5034492;28;20094;-78
2022/08/04 11:08:14;;;;;;;8.30;6.07;;;24.60;99.90;;;;;;5098437;27;20052;-78
2022/08/04 11:10:50;;;;;;;;;;;24.70;99.90;;;;;;5099160;27;20048;-78
2022/08/04 11:13:16;;;;;;;10.65;7.82;;;24.70;99.90;;;;;;5066452;28;19921;-78
2022/08/04 11:15:56;;;;;;;12.00;7.85;;;24.60;99.90;;;;;;5064791;28;20134;-77
2022/08/04 11:18:46;;;;;;;13.70;8.20;;;24.70;99.90;;;;;;5099255;27;20094;-78
2022/08/04 11:21:31;;;;;;;11.63;7.35;;;24.70;99.90;;;;;;5083088;28;20158;-78
2022/08/04 11:24:35;;;;;;;16.88;10.70;;;24.80;99.90;;;;;;5065354;28;20439;-78
2022/08/04 11:27:10;;;;;;;10.70;7.28;;;24.70;99.90;;;;;;5066178;28;20514;-78
2022/08/04 11:30:04;;;;;;;16.35;8.45;;;24.70;99.90;;;;;;5065364;28;20079;-77
2022/08/04 11:32:39;;;;;;;10.70;6.35;;;24.70;99.90;;;;;;5098676;27;20250;-77
2022/08/04 11:35:08;;;;;;;9.50;7.55;;;24.70;99.90;;;;;;5066815;28;20029;-78
2022/08/04 11:37:46;;;;;;;13.73;8.00;;;24.60;99.90;;;;;;5066219;28;20586;-78
2022/08/04 11:40:23;;;;;;;11.05;8.07;;;24.60;99.90;;;;;;5065281;28;20136;-78
2022/08/04 11:43:03;;;;;;;11.70;7.03;;;24.70;99.90;;;;;;5066352;28;20091;-78
2022/08/04 11:45:59;;;;;;;13.15;8.00;;;24.90;99.90;;;;;;5064796;28;20048;-78
2022/08/04 11:49:04;;;;;;;12.50;7.43;;;25.00;99.90;;;;;;5064336;28;20171;-78
2022/08/04 11:51:31;;;;;;;14.10;6.30;;;25.10;99.90;;;;;;5061210;28;20060;-77
2022/08/04 11:53:58;;;;;;;11.35;7.97;;;25.20;99.90;;;;;;5064861;28;20071;-78
2022/08/04 11:56:24;;;;;;;13.38;7.68;;;25.20;99.90;;;;;;5065478;28;20987;-78
2022/08/04 11:58:50;;;;;;;10.85;6.32;;;25.20;99.90;;;;;;5064350;28;20044;-78
2022/08/04 12:01:37;;;;;;;10.48;6.25;;;25.20;99.90;;;;;;5097147;27;20043;-77
2022/08/04 12:04:25;;;;;;;10.43;6.28;;;25.20;99.90;;;;;;5065940;28;20041;-78
2022/08/04 12:07:03;;;;;;;11.15;6.32;;;25.20;99.90;;;;;;5066707;28;20029;-78
2022/08/04 12:09:34;;;;;;;10.45;7.05;;;25.20;99.90;;;;;;5049146;28;20168;-78
2022/08/04 12:12:05;;;;;;;11.07;7.85;;;25.10;99.90;;;;;;5081590;28;20810;-78
2022/08/04 12:14:54;;;;;;;11.07;7.47;;;25.10;99.90;;;;;;5061878;28;20071;-78
2022/08/04 12:17:45;;;;;;;13.38;8.32;;;24.90;99.90;;;;;;5065999;28;20891;-78
2022/08/04 12:20:20;;;;;;;12.13;7.65;;;24.90;99.90;;;;;;5068302;28;20633;-79
2022/08/04 12:22:49;;;;;;;12.75;8.77;;;24.90;99.90;;;;;;5101912;27;20076;-78
2022/08/04 12:25:29;;;;;;;12.40;9.52;;;24.90;99.90;;;;;;5070145;28;20036;-79
2022/08/04 12:28:06;;;;;;;13.10;7.93;;;24.90;99.90;;;;;;5071166;28;20137;-79
2022/08/04 12:30:42;;;;;;;14.23;8.82;;;24.90;99.90;;;;;;5070225;28;20037;-78
2022/08/04 12:33:22;;;;;;;9.90;6.85;;;24.80;99.90;;;;;;5067441;28;20541;-79
2022/08/04 12:35:58;;;;;;;18.38;7.75;;;25.00;99.90;;;;;;5068190;28;20078;-79
2022/08/04 12:38:27;;;;;;;8.50;6.00;;;25.00;99.90;;;;;;5068257;28;20515;-78
2022/08/04 12:40:58;;;;;;;8.07;5.03;;;25.10;99.90;;;;;;5065844;28;20033;-79
2022/08/04 12:43:43;;;;;;;7.35;5.00;;;25.20;99.90;;;;;;5067663;28;20586;-78
2022/08/04 12:46:21;;;;;;;6.88;5.10;;;25.20;99.90;;;;;;5069367;28;20052;-78
2022/08/04 12:48:48;;;;;;;11.07;5.55;;;25.20;99.90;;;;;;5099326;27;20140;-79
2022/08/04 12:51:14;;;;;;;9.77;6.25;;;25.30;99.90;;;;;;5068884;28;20645;-78
2022/08/04 12:53:42;;;;;;;10.02;5.25;;;25.30;99.90;;;;;;5067802;28;20502;-79
2022/08/04 12:56:13;;;;;;;8.18;4.85;;;25.40;99.90;;;;;;5100997;27;20511;-77
2022/08/04 12:58:52;;;;;;;9.90;4.87;;;25.50;99.90;;;;;;5067066;28;20040;-78
2022/08/04 13:01:23;;;;;;;5.65;4.20;;;25.60;99.90;;;;;;5066847;28;20107;-78
2022/08/04 13:03:52;;;;;;;4.77;3.93;;;25.80;99.90;;;;;;5067945;28;20532;-78
2022/08/04 13:06:25;;;;;;;4.28;3.30;;;26.00;99.90;;;;;;5070077;28;20763;-79
2022/08/04 13:08:53;;;;;;;6.20;3.67;;;26.10;99.90;;;;;;5071915;28;20044;-79
2022/08/04 13:11:21;;;;;;;4.10;2.60;;;26.20;99.90;;;;;;5068741;28;20036;-79
2022/08/04 13:13:52;;;;;;;9.93;4.30;;;26.30;99.90;;;;;;5072883;28;20102;-80
2022/08/04 13:16:27;;;;;;;;;;;26.40;99.90;;;;;;5070120;28;20487;-80
2022/08/04 13:18:53;;;;;;;4.55;2.83;;;26.50;99.90;;;;;;5071583;28;19963;-79
2022/08/04 13:21:20;;;;;;;4.78;3.08;;;26.40;99.90;;;;;;5068536;28;20483;-81
2022/08/04 13:23:57;;;;;;;5.70;3.75;;;26.50;99.90;;;;;;5071622;28;20053;-81
2022/08/04 13:26:24;;;;;;;4.28;3.28;;;26.60;99.90;;;;;;5101162;27;20037;-81
2022/08/04 13:28:52;;;;;;;5.30;2.97;;;26.60;99.90;;;;;;5066376;28;20191;-81
2022/08/04 13:31:21;;;;;;;5.00;3.30;;;26.70;99.90;;;;;;5066896;28;20044;-82
2022/08/04 13:33:53;;;;;;;4.28;2.97;;;26.70;99.90;;;;;;5067110;28;20084;-82
2022/08/04 13:36:23;;;;;;;7.18;4.20;;;26.60;99.90;;;;;;5099687;27;20534;-80
2022/08/04 13:38:58;;;;;;;5.78;3.67;;;26.70;99.90;;;;;;5069984;28;20047;-84
2022/08/04 13:41:27;;;;;;;5.43;3.22;;;26.80;99.90;;;;;;5071105;28;20126;-82
2022/08/04 13:43:59;;;;;;;5.18;3.55;;;26.90;99.90;;;;;;5101077;27;20051;-81